createdAt,value
2022-08-03T00:00:12.333Z,5.40
2022-08-03T00:02:41.446Z,7.27
2022-08-03T00:05:11.252Z,9.43
2022-08-03T00:07:41.187Z,8.73
2022-08-03T00:10:13.714Z,9.55
2022-08-03T00:12:43.488Z,5.73
2022-08-03T00:15:16.474Z,7.70
2022-08-03T00:17:53.522Z,5.05
2022-08-03T00:20:17.185Z,10.43
2022-08-03T00:22:47.258Z,6.87
2022-08-03T00:25:16.772Z,9.10
2022-08-03T00:27:47.749Z,8.00
2022-08-03T00:30:18.091Z,7.00
2022-08-03T00:32:47.841Z,9.13
2022-08-03T00:35:36.699Z,8.30
2022-08-03T00:37:49.690Z,8.33
2022-08-03T00:40:20.703Z,12.23
2022-08-03T00:42:56.090Z,9.80
2022-08-03T00:45:28.293Z,5.67
2022-08-03T00:47:58.897Z,12.77
2022-08-03T00:50:31.005Z,7.12
2022-08-03T00:53:01.615Z,11.80
2022-08-03T00:55:31.552Z,6.37
2022-08-03T00:58:04.902Z,6.77
2022-08-03T01:00:38.754Z,11.07
2022-08-03T01:03:10.672Z,12.33
2022-08-03T01:05:55.290Z,13.13
2022-08-03T01:08:30.801Z,15.57
2022-08-03T01:11:18.220Z,8.27
2022-08-03T01:14:18.650Z,6.90
2022-08-03T01:16:55.633Z,11.53
2022-08-03T01:19:49.160Z,9.67
2022-08-03T01:22:30.359Z,8.13
2022-08-03T01:25:08.740Z,12.55
2022-08-03T01:27:53.725Z,7.47
2022-08-03T01:30:26.419Z,10.20
2022-08-03T01:33:03.694Z,12.10
2022-08-03T01:35:42.333Z,10.67
2022-08-03T01:38:15.165Z,9.30
2022-08-03T01:40:47.175Z,7.40
2022-08-03T01:43:58.919Z,9.80
2022-08-03T01:45:55.100Z,9.37
2022-08-03T01:48:25.697Z,9.70
2022-08-03T01:50:58.516Z,16.60
2022-08-03T01:53:30.432Z,8.23
2022-08-03T01:56:00.936Z,9.37
2022-08-03T01:58:32.362Z,10.75
2022-08-03T02:01:03.707Z,8.30
2022-08-03T02:03:36.551Z,11.27
2022-08-03T02:07:02.356Z,14.57
2022-08-03T02:08:44.102Z,9.87
2022-08-03T02:11:14.417Z,14.27
2022-08-03T02:13:46.627Z,11.63
2022-08-03T02:16:17.905Z,12.10
2022-08-03T02:18:49.407Z,6.97
2022-08-03T02:21:21.045Z,10.20
2022-08-03T02:23:52.519Z,7.30
2022-08-03T02:26:25.139Z,14.53
2022-08-03T02:28:57.602Z,8.87
2022-08-03T02:31:32.449Z,15.90
2022-08-03T02:34:05.414Z,12.83
2022-08-03T02:36:39.265Z,14.80
2022-08-03T02:39:11.933Z,8.03
2022-08-03T02:41:53.077Z,13.43
2022-08-03T02:44:27.227Z,13.25
2022-08-03T02:47:01.052Z,12.97
2022-08-03T02:49:40.953Z,11.37
2022-08-03T02:52:13.096Z,15.43
2022-08-03T02:54:42.225Z,14.18
2022-08-03T02:57:14.529Z,7.97
2022-08-03T02:59:45.548Z,16.63
2022-08-03T03:02:17.234Z,13.40
2022-08-03T03:04:58.869Z,12.33
2022-08-03T03:07:20.877Z,10.97
2022-08-03T03:09:52.173Z,8.67
2022-08-03T03:12:23.286Z,11.05
2022-08-03T03:14:53.076Z,10.90
2022-08-03T03:17:23.689Z,10.60
2022-08-03T03:19:54.696Z,12.23
2022-08-03T03:22:25.313Z,13.65
2022-08-03T03:24:56.523Z,12.40
2022-08-03T03:27:28.115Z,13.57
2022-08-03T03:29:59.900Z,9.83
2022-08-03T03:32:30.447Z,10.65
2022-08-03T03:35:00.868Z,14.40
2022-08-03T03:37:30.458Z,9.40
2022-08-03T03:40:00.321Z,11.27
2022-08-03T03:42:30.819Z,15.90
2022-08-03T03:45:02.337Z,14.13
2022-08-03T03:47:33.098Z,11.05
2022-08-03T03:50:07.259Z,11.57
2022-08-03T03:52:37.511Z,12.50
2022-08-03T03:55:08.365Z,11.35
2022-08-03T03:57:38.146Z,12.67
2022-08-03T04:00:10.159Z,10.43
2022-08-03T04:02:40.695Z,13.53
2022-08-03T04:05:28.223Z,12.10
2022-08-03T04:08:24.678Z,18.60
2022-08-03T04:11:29.215Z,13.30
2022-08-03T04:14:01.895Z,9.00
2022-08-03T04:16:34.380Z,13.00
2022-08-03T04:19:07.510Z,11.18
2022-08-03T04:21:40.313Z,12.60
2022-08-03T04:24:12.514Z,12.67
2022-08-03T04:26:44.121Z,12.80
2022-08-03T04:29:15.340Z,13.77
2022-08-03T04:31:46.953Z,11.47
2022-08-03T04:34:17.265Z,9.05
2022-08-03T04:36:50.222Z,16.50
2022-08-03T04:39:23.265Z,9.13
2022-08-03T04:42:07.666Z,16.83
2022-08-03T04:44:29.250Z,12.30
2022-08-03T04:47:00.540Z,13.27
2022-08-03T04:49:31.405Z,17.40
2022-08-03T04:52:01.929Z,8.47
2022-08-03T04:54:32.250Z,12.83
2022-08-03T04:57:02.018Z,18.83
2022-08-03T04:59:31.798Z,14.50
2022-08-03T05:02:01.721Z,10.03
2022-08-03T05:04:31.690Z,16.17
2022-08-03T05:07:11.736Z,13.00
2022-08-03T05:09:50.170Z,14.27
2022-08-03T05:12:07.311Z,14.20
2022-08-03T05:14:38.697Z,15.97
2022-08-03T05:17:09.412Z,10.80
2022-08-03T05:19:39.194Z,12.10
2022-08-03T05:22:10.489Z,11.07
2022-08-03T05:24:40.269Z,13.20
2022-08-03T05:27:10.710Z,9.58
2022-08-03T05:29:41.345Z,18.10
2022-08-03T05:32:12.647Z,19.30
2022-08-03T05:34:42.432Z,13.97
2022-08-03T05:37:12.768Z,16.73
2022-08-03T05:39:42.540Z,16.97
2022-08-03T05:42:12.372Z,17.40
2022-08-03T05:44:42.152Z,12.80
2022-08-03T05:47:11.917Z,17.07
2022-08-03T05:49:41.510Z,15.60
2022-08-03T05:52:14.658Z,16.12
2022-08-03T05:54:56.678Z,12.73
2022-08-03T05:57:14.875Z,13.13
2022-08-03T05:59:53.922Z,16.63
2022-08-03T06:02:16.415Z,10.87
2022-08-03T06:04:46.915Z,17.93
2022-08-03T06:07:16.694Z,17.37
2022-08-03T06:10:36.157Z,10.10
2022-08-03T06:12:18.337Z,14.70
2022-08-03T06:14:48.335Z,10.63
2022-08-03T06:17:18.102Z,12.43
2022-08-03T06:19:47.888Z,13.90
2022-08-03T06:22:17.825Z,16.85
2022-08-03T06:24:53.527Z,11.30
2022-08-03T06:27:20.405Z,15.38
2022-08-03T06:29:51.874Z,15.97
2022-08-03T06:32:22.721Z,12.03
2022-08-03T06:34:52.496Z,12.17
2022-08-03T06:37:23.138Z,12.95
2022-08-03T06:39:53.377Z,10.08
2022-08-03T06:42:23.219Z,10.15
2022-08-03T06:44:54.999Z,11.73
2022-08-03T06:47:24.781Z,11.87
2022-08-03T06:50:16.151Z,12.53
2022-08-03T06:52:37.260Z,11.53
2022-08-03T06:54:57.209Z,15.00
2022-08-03T06:57:27.183Z,14.77
2022-08-03T07:00:09.050Z,16.13
2022-08-03T07:02:30.367Z,14.57
2022-08-03T07:05:00.428Z,14.43
2022-08-03T07:07:30.271Z,16.40
2022-08-03T07:10:00.136Z,10.73
2022-08-03T07:12:32.641Z,11.73
2022-08-03T07:15:04.062Z,11.73
2022-08-03T07:17:35.475Z,18.50
2022-08-03T07:20:09.206Z,14.17
2022-08-03T07:22:38.950Z,14.47
2022-08-03T07:25:09.377Z,15.13
2022-08-03T07:27:39.373Z,18.23
2022-08-03T07:30:11.838Z,16.12
2022-08-03T07:32:49.864Z,20.80
2022-08-03T07:35:24.226Z,10.72
2022-08-03T07:37:54.124Z,17.47
2022-08-03T07:40:17.673Z,17.13
2022-08-03T07:42:47.445Z,15.07
2022-08-03T07:45:18.997Z,17.80
2022-08-03T07:47:53.486Z,15.90
2022-08-03T07:50:19.985Z,13.87
2022-08-03T07:52:51.614Z,12.97
2022-08-03T07:55:23.382Z,16.93
2022-08-03T07:58:12.183Z,17.27
2022-08-03T08:00:42.331Z,12.73
2022-08-03T08:03:13.136Z,16.93
2022-08-03T08:05:42.969Z,20.63
2022-08-03T08:08:13.742Z,13.10
2022-08-03T08:10:57.886Z,13.37
2022-08-03T08:13:14.989Z,19.00
2022-08-03T08:15:44.762Z,11.20
2022-08-03T08:18:16.140Z,19.50
2022-08-03T08:20:45.914Z,11.53
2022-08-03T08:23:42.931Z,17.17
2022-08-03T08:25:47.163Z,14.73
2022-08-03T08:28:32.936Z,13.18
2022-08-03T08:30:53.586Z,12.67
2022-08-03T08:33:24.132Z,16.53
2022-08-03T08:35:55.023Z,22.25
2022-08-03T08:38:25.065Z,21.10
2022-08-03T08:40:57.123Z,17.07
2022-08-03T08:43:26.896Z,17.30
2022-08-03T08:45:59.710Z,13.70
2022-08-03T08:48:31.893Z,21.93
2022-08-03T08:51:02.490Z,19.87
2022-08-03T08:53:35.217Z,14.37
2022-08-03T08:56:08.606Z,11.53
2022-08-03T08:58:44.102Z,17.90
2022-08-03T09:01:13.766Z,18.43
2022-08-03T09:03:43.640Z,13.60
2022-08-03T09:06:13.422Z,15.72
2022-08-03T09:08:43.331Z,18.43
2022-08-03T09:11:13.186Z,16.03
2022-08-03T09:13:43.618Z,17.97
2022-08-03T09:16:18.626Z,13.67
2022-08-03T09:18:51.026Z,20.13
2022-08-03T09:21:34.196Z,23.85
2022-08-03T09:24:02.724Z,15.20
2022-08-03T09:26:31.664Z,18.75
2022-08-03T09:29:13.153Z,15.87
2022-08-03T09:31:43.869Z,19.67
2022-08-03T09:34:16.651Z,23.60
2022-08-03T09:36:52.229Z,9.20
2022-08-03T09:39:28.630Z,11.80
2022-08-03T09:42:10.224Z,18.33
2022-08-03T09:44:42.605Z,22.17
2022-08-03T09:47:14.440Z,18.47
2022-08-03T09:49:46.272Z,12.40
2022-08-03T09:52:39.438Z,15.87
2022-08-03T09:54:53.676Z,18.35
2022-08-03T09:57:25.291Z,19.07
2022-08-03T10:00:04.449Z,12.83
2022-08-03T10:02:29.688Z,17.50
2022-08-03T10:04:59.455Z,21.00
2022-08-03T10:07:29.309Z,14.10
2022-08-03T10:10:30.090Z,18.63
2022-08-03T10:12:32.755Z,16.60
2022-08-03T10:15:03.302Z,17.10
2022-08-03T10:17:36.198Z,14.10
2022-08-03T10:20:07.575Z,25.77
2022-08-03T10:22:39.727Z,15.57
2022-08-03T10:25:12.519Z,12.95
2022-08-03T10:27:45.645Z,15.20
2022-08-03T10:30:15.741Z,20.67
2022-08-03T10:32:50.978Z,13.60
2022-08-03T10:35:23.376Z,21.42
2022-08-03T10:38:05.307Z,13.30
2022-08-03T10:40:55.819Z,23.00
2022-08-03T10:43:16.312Z,13.40
2022-08-03T10:45:48.032Z,18.90
2022-08-03T10:48:19.466Z,19.70
2022-08-03T10:50:51.488Z,13.98
2022-08-03T10:53:35.916Z,14.40
2022-08-03T10:56:44.372Z,11.65
2022-08-03T10:58:58.301Z,17.05
2022-08-03T11:01:58.645Z,14.63
2022-08-03T11:04:25.033Z,19.97
2022-08-03T11:07:18.615Z,16.65
2022-08-03T11:09:54.098Z,14.40
2022-08-03T11:15:09.305Z,12.70
2022-08-03T11:17:46.349Z,16.05
2022-08-03T11:20:12.916Z,15.88
2022-08-03T11:22:54.337Z,12.87
2022-08-03T11:25:54.840Z,21.97
2022-08-03T11:28:14.382Z,12.90
2022-08-03T11:30:44.438Z,15.60
2022-08-03T11:33:17.259Z,15.37
2022-08-03T11:36:02.480Z,19.25
2022-08-03T11:38:32.288Z,15.67
2022-08-03T11:41:02.534Z,15.87
2022-08-03T11:43:36.730Z,12.83
2022-08-03T11:46:11.436Z,19.13
2022-08-03T11:48:43.560Z,15.90
2022-08-03T11:51:27.847Z,14.78
2022-08-03T11:53:59.629Z,16.80
2022-08-03T11:56:31.792Z,15.13
2022-08-03T11:59:20.314Z,19.07
2022-08-03T12:01:33.039Z,9.93
2022-08-03T12:04:07.264Z,14.15
2022-08-03T12:06:38.861Z,15.57
2022-08-03T12:09:21.310Z,13.43
2022-08-03T12:11:59.754Z,14.57
2022-08-03T12:14:49.277Z,12.18
2022-08-03T12:16:54.700Z,15.03
2022-08-03T12:19:24.481Z,11.23
2022-08-03T12:21:56.756Z,13.90
2022-08-03T12:24:27.438Z,14.97
2022-08-03T12:27:00.073Z,13.27
2022-08-03T12:29:30.041Z,7.77
2022-08-03T12:31:59.524Z,8.73
2022-08-03T12:34:49.680Z,8.93
2022-08-03T12:37:23.869Z,5.70
2022-08-03T12:40:05.201Z,6.17
2022-08-03T12:42:34.736Z,9.50
2022-08-03T12:45:27.819Z,4.73
2022-08-03T12:48:00.035Z,7.53
2022-08-03T12:50:32.050Z,8.88
2022-08-03T12:53:04.538Z,6.50
2022-08-03T12:55:57.855Z,8.17
2022-08-03T12:58:13.666Z,5.50
2022-08-03T13:00:42.184Z,5.27
2022-08-03T13:03:39.311Z,6.30
2022-08-03T13:05:47.088Z,5.47
2022-08-03T13:08:25.378Z,6.58
2022-08-03T13:10:55.198Z,7.60
2022-08-03T13:13:41.187Z,5.37
2022-08-03T13:16:15.786Z,8.08
2022-08-03T13:18:42.982Z,7.77
2022-08-03T13:21:17.893Z,6.83
2022-08-03T13:23:47.953Z,4.43
2022-08-03T13:26:17.726Z,4.12
2022-08-03T13:28:47.487Z,4.63
2022-08-03T13:31:17.259Z,4.27
2022-08-03T13:33:47.024Z,6.33
2022-08-03T13:36:17.362Z,5.20
2022-08-03T13:38:47.135Z,8.73
2022-08-03T13:41:16.975Z,6.60
2022-08-03T13:43:47.225Z,6.37
2022-08-03T13:46:17.577Z,6.78
2022-08-03T13:48:47.344Z,7.70
2022-08-03T13:51:22.608Z,5.95
2022-08-03T13:53:48.295Z,4.70
2022-08-03T13:56:18.116Z,4.57
2022-08-03T13:58:47.890Z,6.33
2022-08-03T14:01:29.653Z,5.83
2022-08-03T14:03:51.402Z,9.93
2022-08-03T14:06:23.618Z,10.20
2022-08-03T14:08:56.785Z,3.80
2022-08-03T14:11:25.774Z,5.73
2022-08-03T14:13:57.300Z,11.73
2022-08-03T14:16:27.010Z,6.23
2022-08-03T14:18:56.780Z,9.33
2022-08-03T14:21:27.743Z,9.45
2022-08-03T14:23:57.503Z,6.07
2022-08-03T14:26:27.661Z,4.90
2022-08-03T14:28:57.428Z,7.70
2022-08-03T14:32:11.877Z,5.33
2022-08-03T14:33:58.807Z,6.85
2022-08-03T14:36:28.641Z,5.60
2022-08-03T14:39:01.332Z,10.70
2022-08-03T14:41:29.937Z,6.20
2022-08-03T14:44:02.070Z,6.17
2022-08-03T14:46:32.079Z,7.30
2022-08-03T14:50:34.339Z,9.17
2022-08-03T14:51:33.310Z,6.13
2022-08-03T14:54:03.371Z,8.58
2022-08-03T14:56:33.154Z,11.10
2022-08-03T14:59:02.919Z,5.00
2022-08-03T15:02:04.776Z,7.58
2022-08-03T15:04:05.027Z,9.27
2022-08-03T15:06:35.133Z,7.25
2022-08-03T15:11:36.973Z,6.73
2022-08-03T15:14:09.522Z,10.70
2022-08-03T15:16:39.836Z,6.47
2022-08-03T15:20:05.564Z,4.43
2022-08-03T15:21:47.342Z,7.67
2022-08-03T15:24:12.251Z,6.30
2022-08-03T15:26:42.112Z,4.47
2022-08-03T15:30:05.159Z,6.53
2022-08-03T15:31:44.979Z,7.53
2022-08-03T15:34:14.761Z,7.20
2022-08-03T15:36:44.812Z,8.43
2022-08-03T15:39:14.921Z,11.53
2022-08-03T15:41:45.043Z,7.23
2022-08-03T15:44:14.496Z,9.20
2022-08-03T15:46:44.276Z,10.00
2022-08-03T15:49:14.206Z,5.70
2022-08-03T15:51:43.983Z,6.83
2022-08-03T15:54:13.523Z,8.03
2022-08-03T15:56:44.940Z,7.93
2022-08-03T15:59:14.407Z,6.70
2022-08-03T16:01:44.386Z,5.00
2022-08-03T16:04:14.138Z,8.48
2022-08-03T16:06:43.905Z,5.87
2022-08-03T16:09:24.358Z,5.23
2022-08-03T16:11:45.144Z,8.33
2022-08-03T16:14:32.664Z,9.35
2022-08-03T16:16:46.607Z,5.07
2022-08-03T16:19:16.639Z,5.90
2022-08-03T16:21:48.184Z,10.17
2022-08-03T16:24:25.869Z,7.07
2022-08-03T16:26:49.454Z,9.20
2022-08-03T16:29:23.140Z,4.65
2022-08-03T16:31:51.349Z,4.75
2022-08-03T16:34:21.395Z,4.47
2022-08-03T16:36:51.174Z,5.97
2022-08-03T16:39:21.007Z,9.20
2022-08-03T16:41:54.029Z,8.23
2022-08-03T16:44:22.408Z,4.83
2022-08-03T16:46:52.251Z,9.37
2022-08-03T16:49:54.876Z,5.80
2022-08-03T16:51:53.364Z,6.07
2022-08-03T16:54:23.895Z,5.37
2022-08-03T16:56:55.439Z,6.00
2022-08-03T16:59:36.377Z,5.80
2022-08-03T17:01:58.096Z,7.43
2022-08-03T17:04:29.340Z,5.35
2022-08-03T17:07:00.089Z,8.17
2022-08-03T17:09:38.252Z,4.50
2022-08-03T17:12:03.123Z,3.33
2022-08-03T17:14:33.158Z,7.57
2022-08-03T17:17:05.955Z,10.43
2022-08-03T17:19:39.944Z,6.62
2022-08-03T17:22:17.758Z,5.68
2022-08-03T17:24:50.104Z,8.37
2022-08-03T17:28:50.746Z,5.03
2022-08-03T17:29:57.196Z,11.00
2022-08-03T17:32:30.142Z,5.43
2022-08-03T17:35:00.276Z,9.67
2022-08-03T17:37:57.440Z,6.60
2022-08-03T17:40:03.759Z,8.90
2022-08-03T17:42:35.183Z,6.27
2022-08-03T17:45:08.358Z,7.00
2022-08-03T17:47:42.087Z,8.07
2022-08-03T17:50:24.322Z,7.20
2022-08-03T17:52:48.620Z,2.30
2022-08-03T17:55:56.440Z,4.58
2022-08-03T17:58:03.413Z,5.33
2022-08-03T18:00:53.186Z,6.63
2022-08-03T18:03:56.989Z,6.07
2022-08-03T18:06:12.945Z,4.78
2022-08-03T18:08:48.249Z,7.20
2022-08-03T18:11:21.920Z,4.63
2022-08-03T18:14:16.297Z,5.90
2022-08-03T18:16:51.900Z,6.43
2022-08-03T18:20:01.767Z,4.50
2022-08-03T18:22:03.548Z,4.83
2022-08-03T18:24:30.435Z,10.27
2022-08-03T18:27:04.237Z,8.50
2022-08-03T18:32:13.667Z,6.62
2022-08-03T18:37:23.010Z,4.57
2022-08-03T18:39:52.716Z,6.50
2022-08-03T18:42:26.470Z,6.90
2022-08-03T18:44:56.343Z,4.87
2022-08-03T18:47:52.488Z,13.40
2022-08-03T18:50:30.749Z,8.88
2022-08-03T18:53:19.726Z,5.97
2022-08-03T18:56:02.670Z,7.43
2022-08-03T18:58:38.794Z,6.63
2022-08-03T19:02:00.639Z,4.05
2022-08-03T19:03:54.114Z,10.00
2022-08-03T19:06:26.442Z,7.67
2022-08-03T19:08:58.679Z,7.57
2022-08-03T19:12:13.304Z,6.97
2022-08-03T19:14:05.639Z,7.37
2022-08-03T19:16:39.533Z,6.47
2022-08-03T19:19:14.483Z,3.10
2022-08-03T19:21:46.004Z,5.53
2022-08-03T19:24:21.678Z,7.97
2022-08-03T19:29:57.904Z,4.83
2022-08-03T19:31:59.978Z,7.87
2022-08-03T19:34:32.632Z,6.58
2022-08-03T19:37:03.336Z,7.73
2022-08-03T19:39:33.705Z,9.27
2022-08-03T19:42:12.169Z,5.27
2022-08-03T19:44:44.962Z,6.25
2022-08-03T19:47:30.005Z,7.92
2022-08-03T19:50:06.001Z,5.43
2022-08-03T19:52:35.651Z,4.50
2022-08-03T19:55:12.098Z,5.73
2022-08-03T19:57:45.866Z,11.87
2022-08-03T20:00:17.617Z,6.10
2022-08-03T20:02:50.856Z,9.87
2022-08-03T20:05:20.741Z,6.62
2022-08-03T20:07:53.497Z,9.25
2022-08-03T20:10:23.215Z,7.90
2022-08-03T20:12:54.637Z,8.17
2022-08-03T20:15:31.340Z,8.13
2022-08-03T20:17:58.616Z,6.05
2022-08-03T20:20:36.409Z,5.92
2022-08-03T20:23:10.029Z,5.60
2022-08-03T20:25:57.016Z,13.32
2022-08-03T20:28:17.326Z,6.33
2022-08-03T20:30:47.721Z,4.13
2022-08-03T20:33:18.787Z,7.47
2022-08-03T20:35:50.541Z,11.43
2022-08-03T20:38:20.437Z,6.97
2022-08-03T20:40:51.916Z,9.47
2022-08-03T20:43:23.326Z,5.33
2022-08-03T20:45:58.975Z,8.33
2022-08-03T20:48:26.272Z,6.13
2022-08-03T20:50:56.463Z,9.23
2022-08-03T20:53:59.796Z,8.43
2022-08-03T20:56:02.347Z,7.05
2022-08-03T20:58:33.504Z,9.73
2022-08-03T21:01:03.840Z,5.25
2022-08-03T21:03:40.896Z,5.37
2022-08-03T21:06:08.784Z,9.70
2022-08-03T21:08:46.906Z,5.10
2022-08-03T21:11:15.283Z,7.07
2022-08-03T21:12:58.523Z,7.95
2022-08-03T21:13:53.915Z,10.60
2022-08-03T21:16:26.959Z,5.90
2022-08-03T21:18:59.535Z,7.70
2022-08-03T21:21:32.411Z,12.23
2022-08-03T21:24:04.598Z,5.87
2022-08-03T21:26:37.213Z,7.10
2022-08-03T21:29:08.485Z,6.57
2022-08-03T21:31:40.058Z,6.07
2022-08-03T21:34:11.662Z,6.10
2022-08-03T21:36:41.511Z,4.07
2022-08-03T21:39:12.470Z,3.67
2022-08-03T21:41:42.600Z,7.53
2022-08-03T21:44:13.474Z,5.45
2022-08-03T21:46:44.881Z,10.67
2022-08-03T21:50:05.892Z,5.75
2022-08-03T21:51:48.475Z,4.90
2022-08-03T21:54:20.124Z,7.58
2022-08-03T21:56:51.906Z,6.53
2022-08-03T21:59:23.922Z,9.87
2022-08-03T22:01:55.167Z,7.37
2022-08-03T22:04:50.085Z,8.25
2022-08-03T22:06:59.324Z,5.27
2022-08-03T22:09:29.462Z,4.55
2022-08-03T22:11:59.234Z,5.07
2022-08-03T22:14:29.042Z,8.25
2022-08-03T22:16:58.883Z,5.70
2022-08-03T22:19:28.713Z,7.77
2022-08-03T22:21:59.933Z,5.97
2022-08-03T22:24:32.606Z,10.70
2022-08-03T22:27:21.409Z,8.87
2022-08-03T22:29:52.227Z,7.60
2022-08-03T22:32:22.566Z,5.37
2022-08-03T22:34:53.751Z,6.77
2022-08-03T22:37:26.635Z,13.77
2022-08-03T22:39:58.365Z,9.27
2022-08-03T22:42:28.284Z,5.60
2022-08-03T22:44:58.052Z,7.90
2022-08-03T22:47:28.461Z,5.70
2022-08-03T22:50:31.672Z,9.33
2022-08-03T22:52:31.366Z,6.83
2022-08-03T22:55:03.341Z,7.50
2022-08-03T22:57:34.709Z,9.60
2022-08-03T23:00:09.150Z,7.37
2022-08-03T23:02:40.894Z,8.80
2022-08-03T23:06:00.650Z,7.92
2022-08-03T23:07:51.490Z,5.93
2022-08-03T23:10:21.385Z,9.17
2022-08-03T23:12:51.591Z,6.30
2022-08-03T23:15:26.145Z,5.77
2022-08-03T23:17:58.598Z,5.93
2022-08-03T23:20:29.456Z,7.20
2022-08-03T23:23:00.636Z,4.67
2022-08-03T23:25:30.555Z,7.90
2022-08-03T23:28:05.512Z,4.40
2022-08-03T23:30:36.437Z,9.33
2022-08-03T23:33:09.570Z,7.22
2022-08-03T23:36:22.581Z,6.43
2022-08-03T23:38:31.312Z,3.47
2022-08-03T23:41:03.396Z,5.97
2022-08-03T23:43:46.989Z,7.33
2022-08-03T23:46:10.388Z,8.98
2022-08-03T23:48:40.150Z,4.37
2022-08-03T23:51:31.939Z,4.80
2022-08-03T23:54:22.632Z,7.60
2022-08-03T23:57:10.178Z,4.62
2022-08-03T23:59:42.986Z,4.83
